createdAt,value
2018-12-12T00:00:43.828Z,12.00
2018-12-12T00:03:11.408Z,6.47
2018-12-12T00:05:38.947Z,5.47
2018-12-12T00:08:06.488Z,5.30
2018-12-12T00:10:34.059Z,9.00
2018-12-12T00:13:01.597Z,9.23
2018-12-12T00:15:29.375Z,5.80
2018-12-12T00:17:57.903Z,12.70
2018-12-12T00:20:25.474Z,8.33
2018-12-12T00:22:53.787Z,8.03
2018-12-12T00:25:21.364Z,16.20
2018-12-12T00:27:48.980Z,5.60
2018-12-12T00:30:17.096Z,8.83
2018-12-12T00:32:44.675Z,4.73
2018-12-12T00:35:12.251Z,8.80
2018-12-12T00:37:39.783Z,6.60
2018-12-12T00:40:07.363Z,6.93
2018-12-12T00:42:34.920Z,10.50
2018-12-12T00:45:02.523Z,11.10
2018-12-12T00:47:31.099Z,12.20
2018-12-12T00:49:58.676Z,9.33
2018-12-12T00:52:26.220Z,6.93
2018-12-12T00:54:53.794Z,5.03
2018-12-12T00:57:21.330Z,9.23
2018-12-12T00:59:48.903Z,8.07
2018-12-12T01:02:16.451Z,9.67
2018-12-12T01:04:44.027Z,8.97
2018-12-12T01:07:11.558Z,7.30
2018-12-12T01:09:39.123Z,6.07
2018-12-12T01:12:06.670Z,7.33
2018-12-12T01:14:34.247Z,18.50
2018-12-12T01:17:02.763Z,11.93
2018-12-12T01:19:31.108Z,5.93
2018-12-12T01:21:58.684Z,8.17
2018-12-12T01:24:26.258Z,6.17
2018-12-12T01:26:53.809Z,12.53
2018-12-12T01:29:21.383Z,12.70
2018-12-12T01:31:48.965Z,9.60
2018-12-12T01:34:16.543Z,13.53
2018-12-12T01:36:44.083Z,8.00
2018-12-12T01:39:13.623Z,5.03
2018-12-12T01:41:41.187Z,4.20
2018-12-12T01:44:08.767Z,9.13
2018-12-12T01:46:37.080Z,18.23
2018-12-12T01:49:04.651Z,6.80
2018-12-12T01:51:32.227Z,7.23
2018-12-12T01:53:59.766Z,5.60
2018-12-12T01:56:27.342Z,10.07
2018-12-12T01:58:54.881Z,8.20
2018-12-12T02:01:22.455Z,10.47
2018-12-12T02:03:50.002Z,11.93
2018-12-12T02:06:17.651Z,4.13
2018-12-12T02:08:46.244Z,5.53
2018-12-12T02:11:12.824Z,7.83
2018-12-12T02:13:40.359Z,6.00
2018-12-12T02:16:07.944Z,6.53
2018-12-12T02:18:35.496Z,6.80
2018-12-12T02:21:03.077Z,6.03
2018-12-12T02:23:31.593Z,5.73
2018-12-12T02:26:00.200Z,6.90
2018-12-12T02:28:27.745Z,10.30
2018-12-12T02:30:55.329Z,10.63
2018-12-12T02:33:23.649Z,12.57
2018-12-12T02:35:51.223Z,7.00
2018-12-12T02:38:18.760Z,4.03
2018-12-12T02:40:46.331Z,4.70
2018-12-12T02:43:13.876Z,18.40
2018-12-12T02:45:41.419Z,8.93
2018-12-12T02:48:08.993Z,4.87
2018-12-12T02:50:36.545Z,5.90
2018-12-12T02:53:04.136Z,7.23
2018-12-12T02:55:31.683Z,7.87
2018-12-12T02:57:59.255Z,4.83
2018-12-12T03:00:26.808Z,5.17
2018-12-12T03:02:54.403Z,5.53
2018-12-12T03:05:21.952Z,14.40
2018-12-12T03:07:49.500Z,4.90
2018-12-12T03:10:18.042Z,5.53
2018-12-12T03:12:45.594Z,5.63
2018-12-12T03:15:13.194Z,6.17
2018-12-12T03:17:41.815Z,10.37
2018-12-12T03:20:09.412Z,8.00
2018-12-12T03:22:36.987Z,9.23
2018-12-12T03:25:04.568Z,7.70
2018-12-12T03:27:32.864Z,5.70
2018-12-12T03:30:00.447Z,4.07
2018-12-12T03:32:28.017Z,6.10
2018-12-12T03:34:55.590Z,5.90
2018-12-12T03:37:23.125Z,4.73
2018-12-12T03:39:50.692Z,7.50
2018-12-12T03:42:18.280Z,8.30
2018-12-12T03:44:46.592Z,3.77
2018-12-12T03:47:14.165Z,4.90
2018-12-12T03:49:42.758Z,5.80
2018-12-12T03:52:12.321Z,7.73
2018-12-12T03:54:39.863Z,7.97
2018-12-12T03:57:08.204Z,10.20
2018-12-12T03:59:35.748Z,7.33
2018-12-12T04:02:03.324Z,8.43
2018-12-12T04:04:30.876Z,8.40
2018-12-12T04:06:59.198Z,9.70
2018-12-12T04:09:26.740Z,5.17
2018-12-12T04:11:55.048Z,5.27
2018-12-12T04:14:22.627Z,5.90
2018-12-12T04:16:50.216Z,12.00
2018-12-12T04:19:17.802Z,12.00
2018-12-12T04:21:45.348Z,6.10
2018-12-12T04:24:12.898Z,9.03
2018-12-12T04:26:40.472Z,5.27
2018-12-12T04:29:08.017Z,8.03
2018-12-12T04:31:36.569Z,10.47
2018-12-12T04:34:04.119Z,5.33
2018-12-12T04:36:31.707Z,12.60
2018-12-12T04:38:59.250Z,5.30
2018-12-12T04:41:26.798Z,7.60
2018-12-12T04:43:54.375Z,7.83
2018-12-12T04:46:21.953Z,6.13
2018-12-12T04:48:49.503Z,10.10
2018-12-12T04:51:17.075Z,7.50
2018-12-12T04:53:44.620Z,8.67
2018-12-12T04:56:12.971Z,8.27
2018-12-12T04:58:40.528Z,61.10
2018-12-12T05:01:08.108Z,67.40
2018-12-12T05:03:35.669Z,65.27
2018-12-12T05:06:04.390Z,31.67
2018-12-12T05:08:31.949Z,9.20
2018-12-12T05:10:59.501Z,11.23
2018-12-12T05:13:27.074Z,8.57
2018-12-12T05:15:54.645Z,7.67
2018-12-12T05:18:22.228Z,12.60
2018-12-12T05:20:50.541Z,14.70
2018-12-12T05:23:18.115Z,8.80
2018-12-12T05:25:45.691Z,8.70
2018-12-12T05:28:13.280Z,12.77
2018-12-12T05:30:41.594Z,7.60
2018-12-12T05:33:09.185Z,6.35
2018-12-12T05:35:37.729Z,5.03
2018-12-12T05:38:05.316Z,10.67
2018-12-12T05:40:33.870Z,7.27
2018-12-12T05:43:01.453Z,9.70
2018-12-12T05:45:29.044Z,7.82
2018-12-12T05:47:56.632Z,6.47
2018-12-12T05:50:24.191Z,8.35
2018-12-12T05:52:51.776Z,6.62
2018-12-12T05:55:19.331Z,12.30
2018-12-12T05:57:46.910Z,13.57
2018-12-12T06:00:14.465Z,14.57
2018-12-12T06:02:42.057Z,10.40
2018-12-12T06:05:09.607Z,14.50
2018-12-12T06:07:37.192Z,6.93
2018-12-12T06:10:04.740Z,9.65
2018-12-12T06:12:32.322Z,10.40
2018-12-12T06:14:59.876Z,11.70
2018-12-12T06:17:27.459Z,17.77
2018-12-12T06:19:55.012Z,13.93
2018-12-12T06:22:22.612Z,32.00
2018-12-12T06:24:50.163Z,20.30
2018-12-12T06:27:17.750Z,21.43
2018-12-12T06:29:45.292Z,11.73
2018-12-12T06:32:12.872Z,10.80
2018-12-12T06:34:41.162Z,7.57
2018-12-12T06:37:08.065Z,11.10
2018-12-12T06:39:39.559Z,8.60
2018-12-12T06:42:07.140Z,21.57
2018-12-12T06:44:34.695Z,4.80
2018-12-12T06:47:02.286Z,10.90
2018-12-12T06:49:30.620Z,7.80
2018-12-12T06:51:58.177Z,10.27
2018-12-12T06:54:25.755Z,10.32
2018-12-12T06:56:53.336Z,7.30
2018-12-12T06:59:21.683Z,7.30
2018-12-12T07:01:49.236Z,6.80
2018-12-12T07:04:16.817Z,6.20
2018-12-12T07:06:44.403Z,8.63
2018-12-12T07:09:11.989Z,7.37
2018-12-12T07:11:39.527Z,11.07
2018-12-12T07:14:07.868Z,9.15
2018-12-12T07:16:35.451Z,12.77
2018-12-12T07:19:03.024Z,5.90
2018-12-12T07:21:30.568Z,6.97
2018-12-12T07:23:58.144Z,20.00
2018-12-12T07:26:27.636Z,20.00
2018-12-12T07:28:55.209Z,6.67
2018-12-12T07:31:22.743Z,11.10
2018-12-12T07:33:50.323Z,11.63
2018-12-12T07:36:17.898Z,11.27
2018-12-12T07:38:45.493Z,5.20
2018-12-12T07:41:13.039Z,11.50
2018-12-12T07:43:40.610Z,8.47
2018-12-12T07:46:08.152Z,7.67
2018-12-12T07:48:35.734Z,11.33
2018-12-12T07:51:03.294Z,15.53
2018-12-12T07:53:30.881Z,12.90
2018-12-12T07:55:58.456Z,10.57
2018-12-12T07:58:26.049Z,10.33
2018-12-12T08:00:53.587Z,10.63
2018-12-12T08:03:21.128Z,15.40
2018-12-12T08:05:49.675Z,11.53
2018-12-12T08:08:17.222Z,17.77
2018-12-12T08:10:44.795Z,20.67
2018-12-12T08:13:12.345Z,15.43
2018-12-12T08:15:39.936Z,101.23
2018-12-12T08:18:07.480Z,8.87
2018-12-12T08:20:36.026Z,14.80
2018-12-12T08:23:04.339Z,17.47
2018-12-12T08:25:31.928Z,12.00
2018-12-12T08:27:59.475Z,16.90
2018-12-12T08:30:27.065Z,12.67
2018-12-12T08:32:55.408Z,11.50
2018-12-12T08:35:22.956Z,13.10
2018-12-12T08:37:50.528Z,14.10
2018-12-12T08:40:18.108Z,14.50
2018-12-12T08:42:46.454Z,13.40
2018-12-12T08:45:13.999Z,20.87
2018-12-12T08:47:41.591Z,28.00
2018-12-12T08:50:09.182Z,13.87
2018-12-12T08:52:36.737Z,21.07
2018-12-12T08:55:04.324Z,22.07
2018-12-12T08:57:31.900Z,20.93
2018-12-12T08:59:59.465Z,13.20
2018-12-12T09:02:27.035Z,13.87
2018-12-12T09:04:54.577Z,11.23
2018-12-12T09:07:22.154Z,13.90
2018-12-12T09:09:49.695Z,21.13
2018-12-12T09:12:17.271Z,15.20
2018-12-12T09:14:44.810Z,8.73
2018-12-12T09:17:12.396Z,10.10
2018-12-12T09:19:40.702Z,8.17
2018-12-12T09:22:08.276Z,8.83
2018-12-12T09:24:35.811Z,9.80
2018-12-12T09:27:03.411Z,16.43
2018-12-12T09:29:30.948Z,15.33
2018-12-12T09:31:58.525Z,17.80
2018-12-12T09:34:26.072Z,19.50
2018-12-12T09:36:54.663Z,12.40
2018-12-12T09:39:22.204Z,12.30
2018-12-12T09:41:51.743Z,6.67
2018-12-12T09:44:19.288Z,6.00
2018-12-12T09:46:46.868Z,9.17
2018-12-12T09:49:14.409Z,16.50
2018-12-12T09:51:41.988Z,21.00
2018-12-12T09:54:10.301Z,16.80
2018-12-12T09:56:39.837Z,12.13
2018-12-12T09:59:07.379Z,12.70
2018-12-12T10:01:34.955Z,12.80
2018-12-12T10:04:02.534Z,9.53
2018-12-12T10:06:30.072Z,7.17
2018-12-12T10:08:57.658Z,12.40
2018-12-12T10:11:25.246Z,9.90
2018-12-12T10:13:53.743Z,9.80
2018-12-12T10:16:21.327Z,8.20
2018-12-12T10:18:48.865Z,7.50
2018-12-12T10:21:16.408Z,11.40
2018-12-12T10:23:43.982Z,9.93
2018-12-12T10:26:11.556Z,13.00
2018-12-12T10:28:40.079Z,11.57
2018-12-12T10:31:08.591Z,7.03
2018-12-12T10:33:37.814Z,12.10
2018-12-12T10:36:03.797Z,17.60
2018-12-12T10:38:31.372Z,17.80
2018-12-12T10:40:58.923Z,9.10
2018-12-12T10:43:26.502Z,12.50
2018-12-12T10:45:55.059Z,11.43
2018-12-12T10:48:22.642Z,18.60
2018-12-12T10:50:50.178Z,7.30
2018-12-12T10:53:17.754Z,12.33
2018-12-12T10:55:45.332Z,7.50
2018-12-12T10:58:12.908Z,10.70
2018-12-12T11:00:40.454Z,11.83
2018-12-12T11:06:04.421Z,28.20
2018-12-12T11:08:31.993Z,19.13
2018-12-12T11:10:59.532Z,20.07
2018-12-12T11:13:27.096Z,11.67
2018-12-12T11:15:56.632Z,9.33
2018-12-12T11:18:24.964Z,10.20
2018-12-12T11:20:52.502Z,12.10
2018-12-12T11:23:20.073Z,8.60
2018-12-12T11:25:47.670Z,26.03
2018-12-12T11:28:15.967Z,19.03
2018-12-12T11:30:43.531Z,13.63
2018-12-12T11:33:11.107Z,13.83
2018-12-12T11:35:38.648Z,11.27
2018-12-12T11:38:06.238Z,11.50
2018-12-12T11:40:33.808Z,12.80
2018-12-12T11:43:01.348Z,20.47
2018-12-12T11:45:28.920Z,16.93
2018-12-12T11:47:56.459Z,8.27
2018-12-12T11:50:24.019Z,9.77
2018-12-12T11:52:51.552Z,13.60
2018-12-12T11:55:19.120Z,9.07
2018-12-12T11:57:47.624Z,11.23
2018-12-12T12:00:15.207Z,11.13
2018-12-12T12:02:42.754Z,14.87
2018-12-12T12:05:10.296Z,11.13
2018-12-12T12:07:37.865Z,14.00
2018-12-12T12:10:05.409Z,14.73
2018-12-12T12:12:33.029Z,16.53
2018-12-12T12:15:02.567Z,9.53
2018-12-12T12:17:30.100Z,9.70
2018-12-12T12:19:57.768Z,7.77
2018-12-12T12:22:25.304Z,10.03
2018-12-12T12:24:52.882Z,13.10
2018-12-12T12:27:20.425Z,5.00
2018-12-12T12:29:47.996Z,14.00
2018-12-12T12:32:15.536Z,9.90
2018-12-12T12:34:43.114Z,7.90
2018-12-12T12:37:10.655Z,6.17
2018-12-12T12:39:38.228Z,6.27
2018-12-12T12:42:05.759Z,6.17
2018-12-12T12:44:33.332Z,9.87
2018-12-12T12:47:00.868Z,7.17
2018-12-12T12:49:28.432Z,6.67
2018-12-12T12:51:56.013Z,7.30
2018-12-12T12:54:23.579Z,6.60
2018-12-12T12:56:51.113Z,6.37
2018-12-12T12:59:18.686Z,5.97
2018-12-12T13:01:46.307Z,5.27
2018-12-12T13:04:13.875Z,7.53
2018-12-12T13:06:41.646Z,14.23
2018-12-12T13:09:09.240Z,8.80
2018-12-12T13:11:37.725Z,8.83
2018-12-12T13:14:05.278Z,4.90
2018-12-12T13:16:32.856Z,7.07
2018-12-12T13:19:01.372Z,7.97
2018-12-12T13:21:28.947Z,6.87
2018-12-12T13:23:57.464Z,9.80
2018-12-12T13:26:25.036Z,6.33
2018-12-12T13:28:52.628Z,9.83
2018-12-12T13:31:20.173Z,8.93
2018-12-12T13:33:47.708Z,13.30
2018-12-12T13:36:15.279Z,6.17
2018-12-12T13:38:42.836Z,6.50
2018-12-12T13:41:11.175Z,6.33
2018-12-12T13:43:38.712Z,13.93
2018-12-12T13:46:06.372Z,9.80
2018-12-12T13:48:33.940Z,6.57
2018-12-12T13:51:01.479Z,8.00
2018-12-12T13:53:29.076Z,11.47
2018-12-12T13:55:58.607Z,5.60
2018-12-12T13:58:26.173Z,5.00
2018-12-12T14:00:53.712Z,7.77
2018-12-12T14:03:21.280Z,7.83
2018-12-12T14:05:48.844Z,8.43
2018-12-12T14:08:16.411Z,7.47
2018-12-12T14:10:44.901Z,9.07
2018-12-12T14:13:12.476Z,4.83
2018-12-12T14:15:40.065Z,6.40
2018-12-12T14:18:07.656Z,16.50
2018-12-12T14:20:35.193Z,7.87
2018-12-12T14:23:02.841Z,12.73
2018-12-12T14:25:30.413Z,6.10
2018-12-12T14:27:57.993Z,12.60
2018-12-12T14:30:25.527Z,9.87
2018-12-12T14:32:53.852Z,9.23
2018-12-12T14:35:23.429Z,5.40
2018-12-12T14:37:50.999Z,13.47
2018-12-12T14:40:18.528Z,8.80
2018-12-12T14:42:46.096Z,13.30
2018-12-12T14:45:13.647Z,10.30
2018-12-12T14:47:41.999Z,25.70
2018-12-12T14:50:09.547Z,23.17
2018-12-12T14:52:37.090Z,15.63
2018-12-12T14:55:04.679Z,16.07
2018-12-12T14:57:34.971Z,10.33
2018-12-12T15:00:02.560Z,12.93
2018-12-12T15:02:30.096Z,10.23
2018-12-12T15:04:58.398Z,18.80
2018-12-12T15:07:26.019Z,75.43
2018-12-12T15:09:55.578Z,56.30
2018-12-12T15:12:23.119Z,33.00
2018-12-12T15:14:50.683Z,10.90
2018-12-12T15:17:18.275Z,13.10
2018-12-12T15:19:45.840Z,7.60
2018-12-12T15:22:13.399Z,12.97
2018-12-12T15:24:40.994Z,10.67
2018-12-12T15:27:08.564Z,11.27
2018-12-12T15:29:36.135Z,14.67
2018-12-12T15:32:03.677Z,12.73
2018-12-12T15:34:31.258Z,17.10
2018-12-12T15:36:58.806Z,20.10
2018-12-12T15:39:26.387Z,17.17
2018-12-12T15:41:53.924Z,14.33
2018-12-12T15:44:21.468Z,14.73
2018-12-12T15:46:51.800Z,17.07
2018-12-12T15:49:19.336Z,9.93
2018-12-12T15:51:48.816Z,14.77
2018-12-12T15:54:16.408Z,8.80
2018-12-12T15:56:43.961Z,8.00
2018-12-12T15:59:12.293Z,7.40
2018-12-12T16:01:39.863Z,13.50
2018-12-12T16:04:07.444Z,11.77
2018-12-12T16:06:34.987Z,11.87
2018-12-12T16:09:02.612Z,14.83
2018-12-12T16:11:31.238Z,7.30
2018-12-12T16:14:00.761Z,27.70
2018-12-12T16:16:29.082Z,23.00
2018-12-12T16:18:56.658Z,22.80
2018-12-12T16:21:24.207Z,20.80
2018-12-12T16:23:51.783Z,14.37
2018-12-12T16:26:20.290Z,14.20
2018-12-12T16:28:47.872Z,10.10
2018-12-12T16:31:17.420Z,17.23
2018-12-12T16:33:45.012Z,16.17
2018-12-12T16:36:12.587Z,14.90
2018-12-12T16:38:40.129Z,15.43
2018-12-12T16:41:07.668Z,15.20
2018-12-12T16:43:36.021Z,18.30
2018-12-12T16:46:03.576Z,19.03
2018-12-12T16:48:31.134Z,10.57
2018-12-12T16:50:59.684Z,13.60
2018-12-12T16:53:27.228Z,15.93
2018-12-12T16:55:54.803Z,21.17
2018-12-12T16:58:22.385Z,20.37
2018-12-12T17:00:49.930Z,18.57
2018-12-12T17:03:17.512Z,53.43
2018-12-12T17:05:45.101Z,60.53
2018-12-12T17:08:12.788Z,57.13
2018-12-12T17:10:41.296Z,19.93
2018-12-12T17:13:08.852Z,70.57
2018-12-12T17:15:36.423Z,71.73
2018-12-12T17:18:04.511Z,80.53
2018-12-12T17:20:32.083Z,31.73
2018-12-12T17:22:59.624Z,50.20
2018-12-12T17:25:27.974Z,45.53
2018-12-12T17:27:55.516Z,70.47
2018-12-12T17:30:23.104Z,47.63
2018-12-12T17:32:52.971Z,39.57
2018-12-12T17:35:19.256Z,46.93
2018-12-12T17:37:46.830Z,59.40
2018-12-12T17:40:14.387Z,79.00
2018-12-12T17:42:41.971Z,54.43
2018-12-12T17:45:09.555Z,57.33
2018-12-12T17:47:38.106Z,44.73
2018-12-12T17:50:05.691Z,37.57
2018-12-12T17:52:33.228Z,40.40
2018-12-12T17:55:00.808Z,32.00
2018-12-12T17:57:28.348Z,37.53
2018-12-12T17:59:55.932Z,32.60
2018-12-12T18:02:23.750Z,62.53
2018-12-12T18:04:51.340Z,50.57
2018-12-12T18:07:18.894Z,29.90
2018-12-12T18:09:46.487Z,34.43
2018-12-12T18:12:14.830Z,35.77
2018-12-12T18:14:42.396Z,28.47
2018-12-12T18:17:09.978Z,31.37
2018-12-12T18:19:37.526Z,37.60
2018-12-12T18:22:05.104Z,39.17
2018-12-12T18:24:32.654Z,36.00
2018-12-12T18:27:00.231Z,37.67
2018-12-12T18:29:28.733Z,35.93
2018-12-12T18:31:56.308Z,29.33
2018-12-12T18:34:23.852Z,37.17
2018-12-12T18:36:52.532Z,32.63
2018-12-12T18:39:21.093Z,27.10
2018-12-12T18:41:48.978Z,42.40
2018-12-12T18:44:16.579Z,36.60
2018-12-12T18:46:44.161Z,38.30
2018-12-12T18:49:12.579Z,36.30
2018-12-12T18:51:40.334Z,31.60
2018-12-12T18:54:07.916Z,37.43
2018-12-12T18:56:35.508Z,36.43
2018-12-12T18:59:03.858Z,40.73
2018-12-12T19:01:31.407Z,40.33
2018-12-12T19:03:58.984Z,37.50
2018-12-12T19:06:26.565Z,29.73
2018-12-12T19:08:55.872Z,31.97
2018-12-12T19:11:23.459Z,30.43
2018-12-12T19:13:51.031Z,32.27
2018-12-12T19:16:18.573Z,35.50
2018-12-12T19:18:46.155Z,34.43
2018-12-12T19:21:13.751Z,33.13
2018-12-12T19:23:42.101Z,36.03
2018-12-12T19:26:09.639Z,36.07
2018-12-12T19:28:37.217Z,69.27
2018-12-12T19:31:04.811Z,47.40
2018-12-12T19:33:32.406Z,46.03
2018-12-12T19:36:00.001Z,54.60
2018-12-12T19:38:28.344Z,62.13
2018-12-12T19:40:55.920Z,62.47
2018-12-12T19:43:23.495Z,53.87
2018-12-12T19:45:51.047Z,55.43
2018-12-12T19:48:18.620Z,61.07
2018-12-12T19:50:48.684Z,62.20
2018-12-12T19:53:16.267Z,64.47
2018-12-12T19:55:44.783Z,66.43
2018-12-12T19:58:12.363Z,68.73
2018-12-12T20:00:40.440Z,66.83
2018-12-12T20:03:08.044Z,62.30
2018-12-12T20:05:41.277Z,68.47
2018-12-12T20:08:03.812Z,60.57
2018-12-12T20:10:31.386Z,62.90
2018-12-12T20:12:58.932Z,70.40
2018-12-12T20:15:33.769Z,55.83
2018-12-12T20:18:01.403Z,59.80
2018-12-12T20:20:28.986Z,61.25
2018-12-12T20:22:56.536Z,52.23
2018-12-12T20:25:24.151Z,47.40
2018-12-12T20:27:51.743Z,43.53
2018-12-12T20:30:20.300Z,47.70
2018-12-12T20:32:50.601Z,37.17
2018-12-12T20:35:18.188Z,38.60
2018-12-12T20:37:45.735Z,38.20
2018-12-12T20:40:15.055Z,37.30
2018-12-12T20:42:42.603Z,53.00
2018-12-12T20:45:10.186Z,32.80
2018-12-12T20:47:37.776Z,31.33
2018-12-12T20:50:05.363Z,33.27
2018-12-12T20:52:32.908Z,26.00
2018-12-12T20:55:00.491Z,23.87
2018-12-12T20:57:28.037Z,22.07
2018-12-12T20:59:55.617Z,24.10
2018-12-12T21:02:23.201Z,31.23
2018-12-12T21:04:50.784Z,23.37
2018-12-12T21:07:18.327Z,23.20
2018-12-12T21:09:47.849Z,20.97
2018-12-12T21:12:15.429Z,32.70
2018-12-12T21:14:43.012Z,21.20
2018-12-12T21:17:10.555Z,23.20
2018-12-12T21:19:38.966Z,22.83
2018-12-12T21:22:06.535Z,22.50
2018-12-12T21:24:34.112Z,17.10
2018-12-12T21:27:02.678Z,15.07
2018-12-12T21:29:30.535Z,13.93
2018-12-12T21:31:58.282Z,16.10
2018-12-12T21:34:25.882Z,13.33
2018-12-12T21:36:54.405Z,17.75
2018-12-12T21:39:21.984Z,15.80
2018-12-12T21:41:49.564Z,14.57
2018-12-12T21:44:18.176Z,17.53
2018-12-12T21:46:45.731Z,13.70
2018-12-12T21:49:14.085Z,15.50
2018-12-12T21:51:41.636Z,15.57
2018-12-12T21:54:09.220Z,14.57
2018-12-12T21:56:36.755Z,17.33
2018-12-12T21:59:04.332Z,14.40
2018-12-12T22:01:32.834Z,16.53
2018-12-12T22:04:00.416Z,14.00
2018-12-12T22:06:27.997Z,19.80
2018-12-12T22:08:55.576Z,18.07
2018-12-12T22:11:24.076Z,12.30
2018-12-12T22:13:52.424Z,16.40
2018-12-12T22:16:19.997Z,13.90
2018-12-12T22:18:47.579Z,15.63
2018-12-12T22:21:15.137Z,15.13
2018-12-12T22:23:42.708Z,14.13
2018-12-12T22:26:10.333Z,11.97
2018-12-12T22:28:38.697Z,11.10
2018-12-12T22:31:07.220Z,10.70
2018-12-12T22:33:34.828Z,13.93
2018-12-12T22:36:02.407Z,11.37
2018-12-12T22:38:29.960Z,13.57
2018-12-12T22:40:57.540Z,14.27
2018-12-12T22:43:25.123Z,17.10
2018-12-12T22:45:52.672Z,14.20
2018-12-12T22:48:20.785Z,13.47
2018-12-12T22:50:47.889Z,11.60
2018-12-12T22:53:15.473Z,10.63
2018-12-12T22:55:43.189Z,11.00
2018-12-12T22:58:11.727Z,7.60
2018-12-12T23:00:39.292Z,7.87
2018-12-12T23:03:06.879Z,9.20
2018-12-12T23:05:34.422Z,8.83
2018-12-12T23:08:01.997Z,8.93
2018-12-12T23:10:31.377Z,10.20
2018-12-12T23:12:58.922Z,7.07
2018-12-12T23:15:26.504Z,6.93
2018-12-12T23:17:54.811Z,6.93
2018-12-12T23:20:23.331Z,11.10
2018-12-12T23:22:50.878Z,8.80
2018-12-12T23:25:18.450Z,11.50
2018-12-12T23:27:45.991Z,7.27
2018-12-12T23:30:13.575Z,6.80
2018-12-12T23:32:41.870Z,7.03
2018-12-12T23:35:09.460Z,7.00
2018-12-12T23:37:37.027Z,7.97
2018-12-12T23:40:05.584Z,8.03
2018-12-12T23:42:33.883Z,8.80
2018-12-12T23:45:01.418Z,7.50
2018-12-12T23:47:30.973Z,8.80
2018-12-12T23:49:58.515Z,8.80
2018-12-12T23:52:26.082Z,9.27
2018-12-12T23:54:53.634Z,6.87
2018-12-12T23:57:21.199Z,6.93
2018-12-12T23:59:48.742Z,7.67
